Time;durP1;ratioP1;P1;durP2;ratioP2;P2;SDS_P1;SDS_P2;PMS_P1;PMS_P2;Temp;Humidity;BMP_temperature;BMP_pressure;BME280_temperature;BME280_humidity;BME280_pressure;Samples;Min_cycle;Max_cycle;Signal;HPM_P1;HPM_P2
2022/03/27 00:01:27;;;;;;;;;;;6.80;99.90;;;;;;5024443;28;19975;-79
2022/03/27 00:03:53;;;;;;;;;;;6.70;99.90;;;;;;5040511;28;19944;-73
2022/03/27 00:06:18;;;;;;;;;;;6.70;99.90;;;;;;5023974;28;19925;-73
2022/03/27 00:08:44;;;;;;;;;;;6.70;99.90;;;;;;5040184;28;19924;-74
2022/03/27 00:11:25;;;;;;;;;;;6.70;99.90;;;;;;5040694;28;19921;-74
2022/03/27 00:13:51;;;;;;;;;;;6.70;99.90;;;;;;5040598;28;19925;-73
2022/03/27 00:16:17;;;;;;;;;;;6.70;99.90;;;;;;5024409;28;19931;-74
2022/03/27 00:18:43;;;;;;;;;;;6.70;99.90;;;;;;5040271;28;19920;-74
2022/03/27 00:21:08;;;;;;;;;;;6.70;99.90;;;;;;5040457;28;20322;-73
2022/03/27 00:23:34;;;;;;;;;;;6.70;99.90;;;;;;5040117;28;19978;-73
2022/03/27 00:26:00;;;;;;;;;;;6.70;99.90;;;;;;5024138;28;19924;-73
2022/03/27 00:28:26;;;;;;;;;;;6.70;99.90;;;;;;5040635;28;20000;-73
2022/03/27 00:30:51;;;;;;;;;;;6.70;99.90;;;;;;5039972;28;19927;-74
2022/03/27 00:33:18;;;;;;;;;;;6.70;99.90;;;;;;5040766;28;19951;-75
2022/03/27 00:35:44;;;;;;;;;;;6.60;99.90;;;;;;5040297;28;19921;-74
2022/03/27 00:38:10;;;;;;;;;;;6.70;99.90;;;;;;5039401;28;19928;-74
2022/03/27 00:40:36;;;;;;;;;;;6.70;99.90;;;;;;5020272;28;20469;-74
2022/03/27 00:43:01;;;;;;;;;;;6.70;99.90;;;;;;5000916;28;19921;-74
2022/03/27 00:45:27;;;;;;;;;;;6.70;99.90;;;;;;5001562;28;19924;-75
2022/03/27 00:47:54;;;;;;;;;;;6.70;99.90;;;;;;5036795;28;20675;-74
2022/03/27 00:50:20;;;;;;;;;;;6.70;99.90;;;;;;5020601;28;19925;-74
2022/03/27 00:52:46;;;;;;;;;;;6.70;99.90;;;;;;5020175;28;19921;-73
2022/03/27 00:55:11;;;;;;;;;;;6.70;99.90;;;;;;5037413;28;20003;-74
2022/03/27 00:57:37;;;;;;;;;;;6.60;99.90;;;;;;5020339;28;19924;-74
2022/03/27 01:00:07;;;;;;;;;;;6.60;99.90;;;;;;5036758;28;19921;-74
2022/03/27 01:02:34;;;;;;;;;;;6.60;99.90;;;;;;5054852;28;19927;-73
2022/03/27 01:05:07;;;;;;;;;;;6.60;99.90;;;;;;5000264;28;19931;-74
2022/03/27 01:07:32;;;;;;;;;;;6.70;99.90;;;;;;5032101;28;19928;-74
2022/03/27 01:09:58;;;;;;;;;;;6.70;99.90;;;;;;5036383;28;19921;-74
2022/03/27 01:12:24;;;;;;;;;;;6.70;99.90;;;;;;5036626;28;19924;-74
2022/03/27 01:14:51;;;;;;;;;;;6.70;99.90;;;;;;5019760;28;19925;-73
2022/03/27 01:17:17;;;;;;;;;;;6.60;99.90;;;;;;5020400;28;19944;-74
2022/03/27 01:19:44;;;;;;;;;;;6.70;99.90;;;;;;5036524;28;19971;-74
2022/03/27 01:22:10;;;;;;;;;;;6.60;99.90;;;;;;5020053;28;19942;-73
2022/03/27 01:24:36;;;;;;;;;;;6.60;99.90;;;;;;5036494;28;19920;-74
2022/03/27 01:27:03;;;;;;;;;;;6.60;99.90;;;;;;5036355;28;20377;-74
2022/03/27 01:29:29;;;;;;;;;;;6.70;99.90;;;;;;5036798;28;19927;-74
2022/03/27 01:31:56;;;;;;;;;;;6.60;99.90;;;;;;4997866;28;19921;-74
2022/03/27 01:34:21;;;;;;;;;;;6.60;99.90;;;;;;5035211;28;20036;-75
2022/03/27 01:36:47;;;;;;;;;;;6.60;99.90;;;;;;5035668;28;20379;-74
2022/03/27 01:39:13;;;;;;;;;;;6.60;99.90;;;;;;5036569;28;20007;-74
2022/03/27 01:41:39;;;;;;;;;;;6.60;99.90;;;;;;5019549;28;20054;-74
2022/03/27 01:44:06;;;;;;;;;;;6.60;99.90;;;;;;4996487;28;20016;-73
2022/03/27 01:46:32;;;;;;;;;;;6.60;99.90;;;;;;5031117;28;19920;-74
2022/03/27 01:48:59;;;;;;;;;;;6.60;99.90;;;;;;5036304;28;19924;-74
2022/03/27 01:51:25;;;;;;;;;;;6.60;99.90;;;;;;5018559;28;19927;-73
2022/03/27 01:53:50;;;;;;;;;;;6.50;99.90;;;;;;5018757;28;19921;-73
2022/03/27 01:56:16;;;;;;;;;;;6.50;99.90;;;;;;5019564;28;19920;-73
2022/03/27 01:58:42;;;;;;;;;;;6.50;99.90;;;;;;5019364;28;19925;-73
2022/03/27 02:01:08;;;;;;;;;;;6.50;99.90;;;;;;5019664;28;19931;-74
2022/03/27 02:03:34;;;;;;;;;;;6.50;99.90;;;;;;5019497;28;20416;-74
2022/03/27 02:05:59;;;;;;;;;;;6.50;99.90;;;;;;5007018;28;19925;-73
2022/03/27 02:08:25;;;;;;;;;;;6.50;99.90;;;;;;5035604;28;19920;-74
2022/03/27 02:10:51;;;;;;;;;;;6.50;99.90;;;;;;5015388;28;19947;-74
2022/03/27 02:13:19;;;;;;;;;;;6.50;99.90;;;;;;5016347;28;19921;-74
2022/03/27 02:15:46;;;;;;;;;;;6.60;99.90;;;;;;5030145;28;20468;-78
2022/03/27 02:18:12;;;;;;;;;;;6.60;99.90;;;;;;5019154;28;19960;-74
2022/03/27 02:20:39;;;;;;;;;;;6.60;99.90;;;;;;5019023;28;19979;-74
2022/03/27 02:23:06;;;;;;;;;;;6.60;99.90;;;;;;5019036;28;19983;-73
2022/03/27 02:25:32;;;;;;;;;;;6.70;99.90;;;;;;5035308;28;20346;-74
2022/03/27 02:27:58;;;;;;;;;;;6.60;99.90;;;;;;5034660;28;19920;-74
2022/03/27 02:30:23;;;;;;;;;;;6.60;99.90;;;;;;5035277;28;20015;-74
2022/03/27 02:32:49;;;;;;;;;;;6.70;99.90;;;;;;5035216;28;20011;-73
2022/03/27 02:35:14;;;;;;;;;;;6.70;99.90;;;;;;5018624;28;19920;-74
2022/03/27 02:37:40;;;;;;;;;;;6.70;99.90;;;;;;5034897;28;19920;-73
2022/03/27 02:40:06;;;;;;;;;;;6.70;99.90;;;;;;5018543;28;19921;-74
2022/03/27 02:42:31;;;;;;;;;;;6.70;99.90;;;;;;5035299;28;20281;-75
2022/03/27 02:44:57;;;;;;;;;;;6.70;99.90;;;;;;5018165;28;19928;-74
2022/03/27 02:47:23;;;;;;;;;;;6.80;99.90;;;;;;5034887;28;20014;-74
2022/03/27 02:49:48;;;;;;;;;;;6.80;99.90;;;;;;4999954;28;19947;-73
2022/03/27 02:52:14;;;;;;;;;;;6.80;99.90;;;;;;5018700;28;19921;-73
2022/03/27 02:54:40;;;;;;;;;;;6.80;99.90;;;;;;5035433;28;19925;-73
2022/03/27 02:57:05;;;;;;;;;;;6.80;99.90;;;;;;5018122;28;20354;-73
2022/03/27 02:59:31;;;;;;;;;;;6.80;99.90;;;;;;5034682;28;19927;-74
2022/03/27 03:01:56;;;;;;;;;;;6.80;99.90;;;;;;5017911;28;19924;-74
2022/03/27 03:04:22;;;;;;;;;;;6.70;99.90;;;;;;5034628;28;19925;-74
2022/03/27 03:06:48;;;;;;;;;;;6.70;99.90;;;;;;5017826;28;19920;-74
2022/03/27 03:09:14;;;;;;;;;;;6.70;99.90;;;;;;5017971;28;20423;-74
2022/03/27 03:11:40;;;;;;;;;;;6.70;99.90;;;;;;5034467;28;20446;-74
2022/03/27 03:14:06;;;;;;;;;;;6.60;99.90;;;;;;5002054;28;19921;-73
2022/03/27 03:16:32;;;;;;;;;;;6.60;99.90;;;;;;5034133;28;19994;-74
2022/03/27 03:18:58;;;;;;;;;;;6.50;99.90;;;;;;5034793;28;19953;-74
2022/03/27 03:21:24;;;;;;;;;;;6.50;99.90;;;;;;5001314;28;19920;-74
2022/03/27 03:23:50;;;;;;;;;;;6.50;99.90;;;;;;5018109;28;20018;-74
2022/03/27 03:26:16;;;;;;;;;;;6.50;99.90;;;;;;5033789;28;20032;-74
2022/03/27 03:28:41;;;;;;;;;;;6.50;99.90;;;;;;5013714;28;19921;-73
2022/03/27 03:31:07;;;;;;;;;;;6.50;99.90;;;;;;5015862;28;20390;-74
2022/03/27 03:33:33;;;;;;;;;;;6.40;99.90;;;;;;5034210;28;19920;-74
2022/03/27 03:35:58;;;;;;;;;;;6.30;99.90;;;;;;4996335;28;19959;-74
2022/03/27 03:38:24;;;;;;;;;;;6.30;99.90;;;;;;5028358;28;19928;-74
2022/03/27 03:40:49;;;;;;;;;;;6.20;99.90;;;;;;4996490;28;19925;-74
2022/03/27 03:43:15;;;;;;;;;;;6.20;99.90;;;;;;5024426;28;19925;-74
2022/03/27 03:45:41;;;;;;;;;;;6.10;99.90;;;;;;5024515;28;19921;-73
2022/03/27 03:48:07;;;;;;;;;;;6.20;99.90;;;;;;4995563;28;19929;-76
2022/03/27 03:50:35;;;;;;;;;;;6.20;99.90;;;;;;4997167;28;19928;-74
2022/03/27 03:53:01;;;;;;;;;;;6.20;99.90;;;;;;5011997;28;19921;-75
2022/03/27 03:55:28;;;;;;;;;;;6.10;99.90;;;;;;5012111;28;19968;-75
2022/03/27 03:57:53;;;;;;;;;;;6.10;99.90;;;;;;5025590;28;19925;-75
2022/03/27 04:00:19;;;;;;;;;;;6.10;99.90;;;;;;5032735;28;19947;-76
2022/03/27 04:02:45;;;;;;;;;;;6.10;99.90;;;;;;5000032;28;19921;-75
2022/03/27 04:05:10;;;;;;;;;;;6.10;99.90;;;;;;5032766;28;19927;-75
2022/03/27 04:07:36;;;;;;;;;;;6.00;99.90;;;;;;5033988;28;19921;-75
2022/03/27 04:10:03;;;;;;;;;;;6.10;99.90;;;;;;5033601;28;19971;-75
2022/03/27 04:12:29;;;;;;;;;;;6.00;99.90;;;;;;5034147;28;19963;-75
2022/03/27 04:14:55;;;;;;;;;;;5.90;99.90;;;;;;5017098;28;19964;-75
2022/03/27 04:17:20;;;;;;;;;;;6.00;99.90;;;;;;5032927;28;19929;-75
2022/03/27 04:19:46;;;;;;;;;;;5.90;99.90;;;;;;5021578;28;19921;-75
2022/03/27 04:22:11;;;;;;;;;;;5.90;99.90;;;;;;5021346;28;20031;-75
2022/03/27 04:24:37;;;;;;;;;;;5.80;99.90;;;;;;5034408;28;19932;-76
2022/03/27 04:27:03;;;;;;;;;;;6.00;99.90;;;;;;5017680;28;20007;-75
2022/03/27 04:29:28;;;;;;;;;;;5.90;99.90;;;;;;5034767;28;19944;-75
2022/03/27 04:31:54;;;;;;;;;;;5.90;99.90;;;;;;5028637;28;19921;-75
2022/03/27 04:34:19;;;;;;;;;;;6.00;99.90;;;;;;5017826;28;19932;-75
2022/03/27 04:36:45;;;;;;;;;;;6.00;99.90;;;;;;5032014;28;19920;-75
2022/03/27 04:39:11;;;;;;;;;;;6.00;99.90;;;;;;5037540;28;19921;-75
2022/03/27 04:41:37;;;;;;;;;;;6.00;99.90;;;;;;5037520;28;19921;-75
2022/03/27 04:44:03;;;;;;;;;;;6.00;99.90;;;;;;5037844;28;19925;-75
2022/03/27 04:46:29;;;;;;;;;;;6.10;99.90;;;;;;5037274;28;19928;-75
2022/03/27 04:48:55;;;;;;;;;;;6.20;99.90;;;;;;5037125;28;19920;-75
2022/03/27 04:51:21;;;;;;;;;;;6.20;99.90;;;;;;5037246;28;20004;-75
2022/03/27 04:53:47;;;;;;;;;;;6.20;99.90;;;;;;5012525;28;19921;-76
2022/03/27 04:56:12;;;;;;;;;;;6.20;99.90;;;;;;5020322;28;19924;-75
2022/03/27 04:58:38;;;;;;;;;;;6.30;99.90;;;;;;5037099;28;19920;-76
2022/03/27 05:01:04;;;;;;;;;;;6.30;99.90;;;;;;5037457;28;19921;-75
2022/03/27 05:03:29;;;;;;;;;;;6.30;99.90;;;;;;5037114;28;19924;-75
2022/03/27 05:05:55;;;;;;;;;;;6.30;99.90;;;;;;5006876;28;20373;-75
2022/03/27 05:08:20;;;;;;;;;;;6.30;99.90;;;;;;5018571;28;20360;-75
2022/03/27 05:10:46;;;;;;;;;;;6.30;99.90;;;;;;5033066;28;19921;-75
2022/03/27 05:13:14;;;;;;;;;;;6.30;99.90;;;;;;5036512;28;19929;-77
2022/03/27 05:15:40;;;;;;;;;;;6.20;99.90;;;;;;5020243;28;19932;-76
2022/03/27 05:18:05;;;;;;;;;;;6.30;99.90;;;;;;5019744;28;19929;-75
2022/03/27 05:20:31;;;;;;;;;;;6.20;99.90;;;;;;5036263;28;19920;-75
2022/03/27 05:22:59;;;;;;;;;;;6.20;99.90;;;;;;5020245;28;19928;-76
2022/03/27 05:25:25;;;;;;;;;;;6.20;99.90;;;;;;5035565;28;19932;-74
2022/03/27 05:27:53;;;;;;;;;;;6.20;99.90;;;;;;5019724;28;19927;-75
2022/03/27 05:30:21;;;;;;;;;;;6.20;99.90;;;;;;5036007;28;19929;-75
2022/03/27 05:32:47;;;;;;;;;;;6.20;99.90;;;;;;5003939;28;19935;-75
2022/03/27 05:35:14;;;;;;;;;;;6.20;99.90;;;;;;5019459;28;19924;-75
2022/03/27 05:37:41;;;;;;;;;;;6.10;99.90;;;;;;5035989;28;19924;-76
2022/03/27 05:40:08;;;;;;;;;;;6.10;99.90;;;;;;5019435;28;19927;-78
2022/03/27 05:42:34;;;;;;;;;;;6.20;99.90;;;;;;5036109;28;20370;-75
2022/03/27 05:45:00;;;;;;;;;;;6.20;99.90;;;;;;5035846;28;19925;-76
2022/03/27 05:47:26;;;;;;;;;;;6.20;99.90;;;;;;5016290;28;19928;-75
2022/03/27 05:49:52;;;;;;;;;;;6.20;99.90;;;;;;5030389;28;19947;-75
2022/03/27 05:52:17;;;;;;;;;;;6.20;99.90;;;;;;4999819;28;20361;-76
2022/03/27 05:54:43;;;;;;;;;;;6.20;99.90;;;;;;5016359;28;20019;-76
2022/03/27 05:57:09;;;;;;;;;;;6.20;99.90;;;;;;4983772;28;19920;-75
2022/03/27 05:59:34;;;;;;;;;;;6.30;99.90;;;;;;4989220;28;19929;-76
2022/03/27 06:02:00;;;;;;;;;;;6.30;99.90;;;;;;5034705;28;20013;-75
2022/03/27 06:04:26;;;;;;;;;;;6.30;99.90;;;;;;5019020;28;19971;-75
2022/03/27 06:06:52;;;;;;;;;;;6.30;99.90;;;;;;5018538;28;19955;-77
2022/03/27 06:09:18;;;;;;;;;;;6.30;99.90;;;;;;5035551;28;20011;-75
2022/03/27 06:11:43;;;;;;;;;;;6.30;99.90;;;;;;5041509;28;19921;-75
2022/03/27 06:14:09;;;;;;;;;;;6.40;99.90;;;;;;5026371;28;19971;-75
2022/03/27 06:16:35;;;;;;;;;;;6.40;99.90;;;;;;5042588;28;19928;-76
2022/03/27 06:19:00;;;;;;;;;;;6.40;99.90;;;;;;5026604;28;19921;-74
2022/03/27 06:21:26;;;;;;;;;;;6.50;99.90;;;;;;5035343;28;19994;-76
2022/03/27 06:23:51;;;;;;;;;;;6.50;99.90;;;;;;5035231;28;19921;-77
2022/03/27 06:26:17;;;;;;;;;;;6.50;99.90;;;;;;5034710;28;19974;-80
2022/03/27 06:28:42;;;;;;;;;;;6.50;99.90;;;;;;5015136;28;19925;-77
2022/03/27 06:31:08;;;;;;;;;;;6.60;99.90;;;;;;4999315;28;19975;-77
2022/03/27 06:33:34;;;;;;;;;;;6.70;99.90;;;;;;5027310;28;19934;-77
2022/03/27 06:36:01;;;;;;;;;;;6.70;99.90;;;;;;5018390;28;20031;-76
2022/03/27 06:38:28;;;;;;;;;;;6.70;99.90;;;;;;4998805;28;19948;-77
2022/03/27 06:40:55;;;;;;;;;;;6.80;99.90;;;;;;5033834;28;20400;-77
2022/03/27 06:43:22;;;;;;;;;;;6.90;99.90;;;;;;5001342;28;20296;-78
2022/03/27 06:45:49;;;;;;;;;;;6.90;99.90;;;;;;5018139;28;20281;-77
2022/03/27 06:48:14;;;;;;;;;;;7.00;99.90;;;;;;5016950;28;19920;-78
2022/03/27 06:50:40;;;;;;;;;;;7.00;99.90;;;;;;5016875;28;19925;-76
2022/03/27 06:53:07;;;;;;;;;;;7.00;99.90;;;;;;5034223;28;20377;-77
2022/03/27 06:55:33;;;;;;;;;;;7.10;99.90;;;;;;5034794;28;19967;-77
2022/03/27 06:57:58;;;;;;;;;;;7.20;99.90;;;;;;5034297;28;20381;-77
2022/03/27 07:03:11;;;;;;;;;;;7.30;99.90;;;;;;5042310;28;19954;-77
2022/03/27 07:05:39;;;;;;;;;;;7.40;99.90;;;;;;5017942;28;19928;-76
2022/03/27 07:08:05;;;;;;;;;;;7.50;99.90;;;;;;5032192;28;20011;-77
2022/03/27 07:10:31;;;;;;;;;;;7.50;99.90;;;;;;5033124;28;19927;-77
2022/03/27 07:12:56;;;;;;;;;;;7.60;99.90;;;;;;5033628;28;19921;-77
2022/03/27 07:15:24;;;;;;;;;;;7.60;99.90;;;;;;5034470;28;19990;-77
2022/03/27 07:17:50;;;;;;;;;;;7.70;99.90;;;;;;5034185;28;20012;-78
2022/03/27 07:20:17;;;;;;;;;;;7.70;99.90;;;;;;5034670;28;19921;-76
2022/03/27 07:22:43;;;;;;;;;;;7.80;99.90;;;;;;5018264;28;19924;-77
2022/03/27 07:25:09;;;;;;;;;;;7.80;99.90;;;;;;5018315;28;20009;-77
2022/03/27 07:27:35;;;;;;;;;;;7.80;99.90;;;;;;5034241;28;20063;-76
2022/03/27 07:30:01;;;;;;;;;;;7.90;99.90;;;;;;5034336;28;19925;-77
2022/03/27 07:32:27;;;;;;;;;;;7.90;99.90;;;;;;5018261;28;20312;-77
2022/03/27 07:34:52;;;;;;;;;;;7.90;99.90;;;;;;5018419;28;19925;-77
2022/03/27 07:37:18;;;;;;;;;;;8.00;99.90;;;;;;5018408;28;19920;-78
2022/03/27 07:39:44;;;;;;;;;;;8.10;99.90;;;;;;5014246;28;19925;-76
2022/03/27 07:42:10;;;;;;;;;;;8.10;99.90;;;;;;5034083;28;19925;-77
2022/03/27 07:44:35;;;;;;;;;;;8.20;99.90;;;;;;5014817;28;19952;-76
2022/03/27 07:47:01;;;;;;;;;;;8.30;99.90;;;;;;5028329;28;20289;-74
2022/03/27 07:49:27;;;;;;;;;;;8.30;99.90;;;;;;5021781;28;19975;-76
2022/03/27 07:51:53;;;;;;;;;;;8.40;99.90;;;;;;4985497;28;19935;-73
2022/03/27 07:54:19;;;;;;;;;;;8.40;99.90;;;;;;5020703;28;19920;-80
2022/03/27 07:56:45;;;;;;;;;;;8.40;99.90;;;;;;5036107;28;19921;-79
2022/03/27 07:59:10;;;;;;;;;;;8.50;99.90;;;;;;5017374;28;19971;-78
2022/03/27 08:01:36;;;;;;;;;;;8.50;99.90;;;;;;5016049;28;19921;-78
2022/03/27 08:04:02;;;;;;;;;;;8.60;99.90;;;;;;5017920;28;19929;-78
2022/03/27 08:06:29;;;;;;;;;;;8.70;99.90;;;;;;5031804;28;19932;-78
2022/03/27 08:08:56;;;;;;;;;;;8.60;99.90;;;;;;5017404;28;19921;-77
2022/03/27 08:11:22;;;;;;;;;;;8.70;99.90;;;;;;5034684;28;20266;-77
2022/03/27 08:13:47;;;;;;;;;;;8.70;99.90;;;;;;5037528;28;19975;-77
2022/03/27 08:16:13;;;;;;;;;;;8.70;99.90;;;;;;5034443;28;20380;-77
2022/03/27 08:18:39;;;;;;;;;;;8.80;99.90;;;;;;5038095;28;19924;-77
2022/03/27 08:21:05;;;;;;;;;;;8.90;99.90;;;;;;5020587;28;19927;-76
2022/03/27 08:23:31;;;;;;;;;;;9.00;99.90;;;;;;5037116;28;19920;-76
2022/03/27 08:28:42;;;;;;;;;;;9.40;99.90;;;;;;5036484;28;19970;-75
2022/03/27 08:31:07;;;;;;;;;;;9.60;99.90;;;;;;5024744;28;19928;-76
2022/03/27 08:33:33;;;;;;;;;;;9.60;99.90;;;;;;5008190;28;19928;-79
2022/03/27 08:35:59;;;;;;;;;;;9.60;99.90;;;;;;5017960;28;20002;-76
2022/03/27 08:38:25;;;;;;;;;;;9.60;99.90;;;;;;5020961;28;19921;-76
2022/03/27 08:40:53;;;;;;;;;;;9.60;99.90;;;;;;5017656;28;19992;-75
2022/03/27 08:43:18;;;;;;;;;;;9.50;99.90;;;;;;5025103;28;19967;-76
2022/03/27 08:45:44;;;;;;;;;;;9.40;99.90;;;;;;5010358;28;19925;-77
2022/03/27 08:48:10;;;;;;;;;;;9.40;99.90;;;;;;5021600;28;19932;-77
2022/03/27 08:50:36;;;;;;;;;;;9.40;99.90;;;;;;5021201;28;20262;-80
2022/03/27 08:53:04;;;;;;;;;;;9.40;99.90;;;;;;5017330;28;19925;-77
2022/03/27 08:55:48;;;;;;;;;;;9.40;99.90;;;;;;5028088;28;19925;-77
2022/03/27 08:58:14;;;;;;;;;;;9.40;99.90;;;;;;5018870;28;20281;-77
2022/03/27 09:00:40;;;;;;;;;;;9.50;99.90;;;;;;5029167;28;19932;-78
2022/03/27 09:03:07;;;;;;;;;;;9.60;99.90;;;;;;5020346;28;19921;-77
2022/03/27 09:05:39;;;;;;;;;;;9.60;99.90;;;;;;5020069;28;19971;-78
2022/03/27 09:08:09;;;;;;;;;;;9.60;99.90;;;;;;5016211;28;20004;-78
2022/03/27 09:10:35;;;;;;;;;;;9.60;99.90;;;;;;5031328;28;19928;-77
2022/03/27 09:13:01;;;;;;;;;;;9.60;99.90;;;;;;5026959;28;19925;-77
2022/03/27 09:15:27;;;;;;;;;;;9.70;99.90;;;;;;5017287;28;20268;-77
2022/03/27 09:18:00;;;;;;;;;;;9.70;99.90;;;;;;5033626;28;20015;-77
2022/03/27 09:20:32;;;;;;;;;;;9.80;99.90;;;;;;5019885;28;19928;-77
2022/03/27 09:23:16;;;;;;;;;;;9.80;99.90;;;;;;5030838;28;19925;-78
2022/03/27 09:26:01;;;;;;;;;;;9.90;99.90;;;;;;5015783;28;20266;-77
2022/03/27 09:28:26;;;;;;;;;;;9.90;99.90;;;;;;5033290;28;19928;-77
2022/03/27 09:30:53;;;;;;;;;;;10.10;99.90;;;;;;5019219;28;19925;-76
2022/03/27 09:33:35;;;;;;;;;;;10.10;99.90;;;;;;5022336;28;19972;-77
2022/03/27 09:36:08;;;;;;;;;;;10.10;99.90;;;;;;5029117;28;19924;-77
2022/03/27 09:38:34;;;;;;;;;;;10.10;99.90;;;;;;5035699;28;19990;-77
2022/03/27 09:41:00;;;;;;;;;;;10.20;99.90;;;;;;5052231;28;19935;-76
2022/03/27 09:43:26;;;;;;;;;;;10.30;99.90;;;;;;5035952;28;19921;-76
2022/03/27 09:45:56;;;;;;;;;;;10.30;99.90;;;;;;5045720;28;19975;-76
2022/03/27 09:48:22;;;;;;;;;;;10.30;99.90;;;;;;4999310;28;20387;-77
2022/03/27 09:50:48;;;;;;;;;;;10.40;99.90;;;;;;5028596;28;19931;-77
2022/03/27 09:53:18;;;;;;;;;;;10.50;99.90;;;;;;5018796;28;19924;-77
2022/03/27 09:55:44;;;;;;;;;;;10.50;99.90;;;;;;5034795;28;19967;-77
2022/03/27 09:58:10;;;;;;;;;;;10.50;99.90;;;;;;4998743;28;19933;-77
2022/03/27 10:00:36;;;;;;;;;;;10.60;99.90;;;;;;5018993;28;19921;-77
2022/03/27 10:03:10;;;;;;;;;;;10.60;99.90;;;;;;5000648;28;19920;-77
2022/03/27 10:05:37;;;;;;;;;;;10.70;99.90;;;;;;5018459;28;19947;-77
2022/03/27 10:08:03;;;;;;;;;;;10.70;99.90;;;;;;5033752;28;19999;-78
2022/03/27 10:10:29;;;;;;;;;;;10.70;99.90;;;;;;5034668;28;19920;-76
2022/03/27 10:12:55;;;;;;;;;;;10.80;99.90;;;;;;5029007;28;19951;-77
2022/03/27 10:15:22;;;;;;;;;;;10.90;99.90;;;;;;5033946;28;19928;-77
2022/03/27 10:17:50;;;;;;;;;;;10.90;99.90;;;;;;5010484;28;19921;-77
2022/03/27 10:20:17;;;;;;;;;;;11.00;99.90;;;;;;5005654;28;19966;-77
2022/03/27 10:22:44;;;;;;;;;;;11.00;99.90;;;;;;5016477;28;19976;-79
2022/03/27 10:25:11;;;;;;;;;;;11.10;99.90;;;;;;5018606;28;19925;-76
2022/03/27 10:27:38;;;;;;;;;;;11.20;99.90;;;;;;5033288;28;20027;-77
2022/03/27 10:30:05;;;;;;;;;;;11.20;99.90;;;;;;5034694;28;19921;-77
2022/03/27 10:32:31;;;;;;;;;;;11.30;99.90;;;;;;5018095;28;19925;-76
2022/03/27 10:35:13;;;;;;;;;;;11.30;99.90;;;;;;5035044;28;19921;-77
2022/03/27 10:37:44;;;;;;;;;;;11.40;99.90;;;;;;5052559;28;19921;-76
2022/03/27 10:40:20;;;;;;;;;;;11.60;99.90;;;;;;5034655;28;19985;-76
2022/03/27 10:42:51;;;;;;;;;;;11.60;99.90;;;;;;5035011;28;19963;-80
2022/03/27 10:45:20;;;;;;;;;;;11.80;99.90;;;;;;5053697;28;19921;-76
2022/03/27 10:48:05;;;;;;;;;;;11.90;99.90;;;;;;5034480;28;19921;-79
2022/03/27 10:50:30;;;;;;;;;;;12.00;99.90;;;;;;5034702;28;19921;-76
2022/03/27 10:52:56;;;;;;;;;;;12.10;99.90;;;;;;5034276;28;19920;-76
2022/03/27 10:55:22;;;;;;;;;;;12.30;99.90;;;;;;5018717;28;19950;-76
2022/03/27 10:57:51;;;;;;;;;;;12.40;99.90;;;;;;5018254;28;19924;-77
2022/03/27 11:00:35;;;;;;;;;;;12.50;99.90;;;;;;5034619;28;19928;-77
2022/03/27 11:03:01;;;;;;;;;;;12.70;99.90;;;;;;5033969;28;20448;-77
2022/03/27 11:05:35;;;;;;;;;;;12.80;99.90;;;;;;5034823;28;20047;-77
2022/03/27 11:08:19;;;;;;;;;;;13.00;99.90;;;;;;5034261;28;19924;-77
2022/03/27 11:10:49;;;;;;;;;;;13.20;99.90;;;;;;5035001;28;19964;-77
2022/03/27 11:13:39;;;;;;;;;;;13.40;99.90;;;;;;5034588;28;19921;-77
2022/03/27 11:16:05;;;;;;;;;;;13.50;99.90;;;;;;5017454;28;19968;-77
2022/03/27 11:18:35;;;;;;;;;;;13.70;99.90;;;;;;5034688;28;20269;-76
2022/03/27 11:21:01;;;;;;;;;;;13.80;99.90;;;;;;5018049;28;19927;-77
2022/03/27 11:23:27;;;;;;;;;;;14.10;99.90;;;;;;5033984;28;20285;-77
2022/03/27 11:25:53;;;;;;;;;;;14.40;99.90;;;;;;5033883;28;19924;-77
2022/03/27 11:28:20;;;;;;;;;;;14.70;99.90;;;;;;5034430;28;19921;-76
2022/03/27 11:30:53;;;;;;;;;;;14.70;99.90;;;;;;5034795;28;20385;-86
2022/03/27 11:33:23;;;;;;;;;;;14.70;99.90;;;;;;5001782;28;20277;-86
2022/03/27 11:36:01;;;;;;;;;;;14.90;99.90;;;;;;5034702;28;19920;-81
2022/03/27 11:38:47;;;;;;;;;;;15.00;99.90;;;;;;5020655;28;19927;-79
2022/03/27 11:41:31;;;;;;;;;;;15.30;99.90;;;;;;5033376;28;20404;-82
2022/03/27 11:44:15;;;;;;;;;;;15.60;99.90;;;;;;5017328;28;19983;-84
2022/03/27 11:46:43;;;;;;;;;;;15.90;98.40;;;;;;5017630;28;19925;-86
2022/03/27 11:49:08;;;;;;;;;;;16.20;97.90;;;;;;5019024;28;20007;-84
2022/03/27 11:51:34;;;;;;;;;;;16.10;97.40;;;;;;5019239;28;20647;-87
2022/03/27 11:53:59;;;;;;;;;;;16.40;98.20;;;;;;5029949;28;19932;-86
2022/03/27 11:56:25;;;;;;;;;;;16.60;98.60;;;;;;5018796;28;19927;-86
2022/03/27 11:59:06;;;;;;;;;;;16.90;94.10;;;;;;5015174;28;19921;-87
2022/03/27 12:01:32;;;;;;;;;;;16.90;93.70;;;;;;5001525;28;20328;-88
2022/03/27 12:03:58;;;;;;;;;;;17.30;96.90;;;;;;5010173;28;19924;-88
2022/03/27 12:06:28;;;;;;;;;;;17.20;95.30;;;;;;5010338;28;20391;-86
2022/03/27 12:08:53;;;;;;;;;;;17.20;94.00;;;;;;5007988;28;19928;-88
2022/03/27 12:11:23;;;;;;;;;;;17.30;95.80;;;;;;5010160;28;19917;-86
2022/03/27 12:13:49;;;;;;;;;;;17.30;96.20;;;;;;5016591;28;19971;-85
2022/03/27 12:16:20;;;;;;;;;;;17.40;97.20;;;;;;5025273;28;19925;-86
2022/03/27 12:18:47;;;;;;;;;;;17.60;94.70;;;;;;5031933;28;19960;-86
2022/03/27 12:21:14;;;;;;;;;;;17.90;93.50;;;;;;5017468;28;20404;-84
2022/03/27 12:23:41;;;;;;;;;;;18.00;92.00;;;;;;5029685;28;20004;-78
2022/03/27 12:29:40;;;;;;;;;;;17.90;91.50;;;;;;5023454;28;19921;-78
2022/03/27 12:31:58;;;;;;;;;;;17.70;91.20;;;;;;5033782;28;19943;-77
2022/03/27 12:34:24;;;;;;;;;;;17.40;92.50;;;;;;5032350;28;19932;-77
2022/03/27 12:37:09;;;;;;;;;;;17.20;93.50;;;;;;5030349;28;19925;-78
2022/03/27 12:39:36;;;;;;;;;;;16.80;94.10;;;;;;5036382;28;19951;-77
2022/03/27 12:42:01;;;;;;;;;;;16.60;95.00;;;;;;5038368;28;19920;-80
2022/03/27 12:44:49;;;;;;;;;;;16.40;95.60;;;;;;5038531;28;20281;-81
2022/03/27 12:47:15;;;;;;;;;;;16.30;96.80;;;;;;5055976;28;19920;-77
2022/03/27 12:49:47;;;;;;;;;;;16.20;97.10;;;;;;5038358;28;19921;-77
2022/03/27 12:52:13;;;;;;;;;;;16.00;96.50;;;;;;5038167;28;20011;-78
2022/03/27 12:54:55;;;;;;;;;;;15.70;97.50;;;;;;5038441;28;19967;-77
2022/03/27 12:57:20;;;;;;;;;;;15.70;99.10;;;;;;5038094;28;19925;-77
2022/03/27 12:59:46;;;;;;;;;;;15.70;99.90;;;;;;5033558;28;19971;-77
2022/03/27 13:02:25;;;;;;;;;;;15.70;99.90;;;;;;5029910;28;19931;-80
2022/03/27 13:04:58;;;;;;;;;;;15.70;99.90;;;;;;5030372;28;19921;-79
2022/03/27 13:07:42;;;;;;;;;;;15.50;99.30;;;;;;5020066;28;20413;-79
2022/03/27 13:10:11;;;;;;;;;;;15.20;99.90;;;;;;5027105;28;19925;-79
2022/03/27 13:12:36;;;;;;;;;;;15.00;99.90;;;;;;5023320;28;20389;-79
2022/03/27 13:15:02;;;;;;;;;;;15.10;99.90;;;;;;5013635;28;19960;-80
2022/03/27 13:17:28;;;;;;;;;;;15.00;99.90;;;;;;4984476;28;19924;-79
2022/03/27 13:19:53;;;;;;;;;;;15.30;99.90;;;;;;5050414;28;19972;-79
2022/03/27 13:22:19;;;;;;;;;;;15.50;99.90;;;;;;5030384;28;19933;-79
2022/03/27 13:24:48;;;;;;;;;;;15.50;99.90;;;;;;5037233;28;19927;-79
2022/03/27 13:27:15;;;;;;;;;;;15.50;99.90;;;;;;5036860;28;19975;-79
2022/03/27 13:29:41;;;;;;;;;;;15.40;99.90;;;;;;5036489;28;19924;-79
2022/03/27 13:32:07;;;;;;;;;;;15.40;99.90;;;;;;5036723;28;19921;-79
2022/03/27 13:34:34;;;;;;;;;;;15.50;99.90;;;;;;5036915;28;19924;-79
2022/03/27 13:37:00;;;;;;;;;;;15.70;99.90;;;;;;5036936;28;20311;-79
2022/03/27 13:39:26;;;;;;;;;;;15.80;99.90;;;;;;5034829;28;19925;-80
2022/03/27 13:44:38;;;;;;;;;;;16.20;99.90;;;;;;5033255;28;19921;-79
2022/03/27 13:47:04;;;;;;;;;;;16.80;99.80;;;;;;5032088;28;19921;-80
2022/03/27 13:49:30;;;;;;;;;;;17.20;99.10;;;;;;5016147;28;20028;-80
2022/03/27 13:51:55;;;;;;;;;;;17.20;97.00;;;;;;5035502;28;20007;-80
2022/03/27 13:54:21;;;;;;;;;;;17.20;96.30;;;;;;5019003;28;19943;-79
2022/03/27 13:56:47;;;;;;;;;;;17.40;96.00;;;;;;5019069;28;19948;-80
2022/03/27 13:59:13;;;;;;;;;;;17.60;95.40;;;;;;5019344;28;19928;-80
2022/03/27 14:01:40;;;;;;;;;;;17.80;95.50;;;;;;5035498;28;19925;-80
2022/03/27 14:04:06;;;;;;;;;;;18.20;94.50;;;;;;5036459;28;19974;-79
2022/03/27 14:06:32;;;;;;;;;;;18.90;92.50;;;;;;5035463;28;19924;-79
2022/03/27 14:08:58;;;;;;;;;;;19.40;90.80;;;;;;5035320;28;19955;-79
2022/03/27 14:11:24;;;;;;;;;;;19.90;86.20;;;;;;5035855;28;20077;-79
2022/03/27 14:13:49;;;;;;;;;;;20.20;84.80;;;;;;5053711;28;20401;-79
2022/03/27 14:16:15;;;;;;;;;;;20.30;80.70;;;;;;5053540;28;19924;-79
2022/03/27 14:18:41;;;;;;;;;;;20.30;81.80;;;;;;5052872;28;20309;-78
2022/03/27 14:21:06;;;;;;;;;;;19.80;76.60;;;;;;5051042;28;20295;-81
2022/03/27 14:23:32;;;;;;;;;;;19.70;77.90;;;;;;5011968;28;20288;-78
2022/03/27 14:25:59;;;;;;;;;;;19.70;79.60;;;;;;5045827;28;19943;-80
2022/03/27 14:28:25;;;;;;;;;;;19.80;82.20;;;;;;5029938;28;19951;-80
2022/03/27 14:30:51;;;;;;;;;;;20.20;79.30;;;;;;5029666;28;19925;-80
2022/03/27 14:33:17;;;;;;;;;;;20.60;76.70;;;;;;5013791;28;20405;-81
2022/03/27 14:35:42;;;;;;;;;;;20.50;75.30;;;;;;5034373;28;20339;-81
2022/03/27 14:38:08;;;;;;;;;;;20.50;75.70;;;;;;5018540;28;20012;-80